Lubov IVanova — UXEL — position and weather

sailwx.info

Track history (hours):
 
Tides and Currents Weather Stations Pressure Air Temp Water Temp Dewpoint Dewpoint Depression Visibility Wind Speed Wind Dir Waves Ship Positions

Lubov IVanova

Last reported at 2017-Oct-31 10:00 UTC. Time now 2017-Dec-11 00:24 UTC.
Position N 47°00' E 031°56'.
Warning: this ship's position is 40 days out of date.

Length 17 m.

Type: Passenger vessel. MMSI: 272160100.

Date/timePositionNaut miles runAvg speedWind from/ knotsBaromVisibWave heightAir tempDewpointWater temp
2017-Oct-31 10:00N 47°00' E 031°56'1 2.4
2017-Oct-31 09:30N 47°00' E 031°58'2 4.2
2017-Oct-31 09:00N 46°59' E 031°60'0 0.0
2017-Oct-31 08:30N 46°59' E 031°60'0 0.0
2017-Oct-31 08:00N 46°59' E 031°60'0 0.0
2017-Oct-31 07:30N 46°59' E 031°60'0 0.0
2017-Oct-29 14:51N 46°59' E 031°60'0 0.7
2017-Oct-29 14:30N 46°59' E 031°59'2 3.0
2017-Oct-29 14:00N 46°58' E 031°57'2 3.4
2017-Oct-29 13:30N 46°59' E 031°60'0 0.0
2017-Oct-29 13:00N 46°59' E 031°60'1 3.0
2017-Oct-29 12:30N 46°59' E 031°57'1 2.9
2017-Oct-29 11:59N 46°59' E 031°60'1 2.6
2017-Oct-29 11:30N 46°59' E 031°58'1 1.7
2017-Oct-29 11:00N 46°59' E 031°59'0 0.0
2017-Oct-28 15:01N 46°59' E 031°60'0 0.0
2017-Oct-28 14:58N 46°59' E 031°60'1 1.7
2017-Oct-28 14:30N 46°59' E 031°59'1 2.4
2017-Oct-28 14:00N 46°59' E 031°57'1 2.5
2017-Oct-28 13:30N 46°58' E 031°56'1 2.5
2017-Oct-28 13:00N 46°57' E 031°55'2 4.2
2017-Oct-28 12:30N 46°56' E 031°58'2 3.5
2017-Oct-28 12:00N 46°56' E 031°55'2 4.0
2017-Oct-28 11:30N 46°58' E 031°56'2 4.1
2017-Oct-28 11:00N 46°60' E 031°59'2 3.4
2017-Oct-28 10:30N 47°00' E 031°56'1 2.2
2017-Oct-28 09:50N 46°60' E 031°54'1 4.0
2017-Oct-28 09:30N 47°00' E 031°56'2 3.2
2017-Oct-28 09:00N 46°60' E 031°58'2 2.9
2017-Oct-28 08:29N 46°59' E 031°60'0 0.0
2017-Oct-28 07:59N 46°59' E 031°60'0 0.0
2017-Oct-28 07:29N 46°59' E 031°60'0 0.0
2017-Oct-28 06:59N 46°59' E 031°60'  
2017-Oct-21 16:41N 46°59' E 031°60'0 0.1
2017-Oct-21 16:29N 46°59' E 031°60'0 0.0
2017-Oct-21 15:59N 46°59' E 031°60'2 2.9
2017-Oct-21 15:28N 46°59' E 031°57'1 2.7
2017-Oct-21 14:59N 46°58' E 031°56'0 0.5
2017-Oct-21 14:30N 46°58' E 031°55'1 1.4
2017-Oct-21 13:28N 46°59' E 031°57'0 0.5
2017-Oct-21 12:59N 46°59' E 031°58'1 1.4
2017-Oct-21 12:30N 46°59' E 031°58'1 1.9
2017-Oct-21 12:00N 46°59' E 031°60'0 0.0
2017-Oct-21 11:30N 46°59' E 031°60'1 2.6
2017-Oct-21 11:00N 46°59' E 031°58'1 1.6
2017-Oct-21 10:30N 46°59' E 031°59'  
Track history (hours):
 
Tides and Currents Weather Stations Pressure Air Temp Water Temp Dewpoint Dewpoint Depression Visibility Wind Speed Wind Dir Waves Ship Positions

Lubov IVanova

Last reported at 2017-Oct-31 10:00 UTC. Time now 2017-Dec-11 00:24 UTC.
Position N 47°00' E 031°56'.
Warning: this ship's position is 40 days out of date.

Length 17 m.

Type: Passenger vessel. MMSI: 272160100.

Date/timePositionNaut miles runAvg speedWind from/ knotsBaromVisibWave heightAir tempDewpointWater temp
2017-Oct-31 10:00N 47°00' E 031°56'1 2.4
2017-Oct-31 09:30N 47°00' E 031°58'2 4.2
2017-Oct-31 09:00N 46°59' E 031°60'0 0.0
2017-Oct-31 08:30N 46°59' E 031°60'0 0.0
2017-Oct-31 08:00N 46°59' E 031°60'0 0.0
2017-Oct-31 07:30N 46°59' E 031°60'0 0.0
2017-Oct-29 14:51N 46°59' E 031°60'0 0.7
2017-Oct-29 14:30N 46°59' E 031°59'2 3.0
2017-Oct-29 14:00N 46°58' E 031°57'2 3.4
2017-Oct-29 13:30N 46°59' E 031°60'0 0.0
2017-Oct-29 13:00N 46°59' E 031°60'1 3.0
2017-Oct-29 12:30N 46°59' E 031°57'1 2.9
2017-Oct-29 11:59N 46°59' E 031°60'1 2.6
2017-Oct-29 11:30N 46°59' E 031°58'1 1.7
2017-Oct-29 11:00N 46°59' E 031°59'0 0.0
2017-Oct-28 15:01N 46°59' E 031°60'0 0.0
2017-Oct-28 14:58N 46°59' E 031°60'1 1.7
2017-Oct-28 14:30N 46°59' E 031°59'1 2.4
2017-Oct-28 14:00N 46°59' E 031°57'1 2.5
2017-Oct-28 13:30N 46°58' E 031°56'1 2.5
2017-Oct-28 13:00N 46°57' E 031°55'2 4.2
2017-Oct-28 12:30N 46°56' E 031°58'2 3.5
2017-Oct-28 12:00N 46°56' E 031°55'2 4.0
2017-Oct-28 11:30N 46°58' E 031°56'2 4.1
2017-Oct-28 11:00N 46°60' E 031°59'2 3.4
2017-Oct-28 10:30N 47°00' E 031°56'1 2.2
2017-Oct-28 09:50N 46°60' E 031°54'1 4.0
2017-Oct-28 09:30N 47°00' E 031°56'2 3.2
2017-Oct-28 09:00N 46°60' E 031°58'2 2.9
2017-Oct-28 08:29N 46°59' E 031°60'0 0.0
2017-Oct-28 07:59N 46°59' E 031°60'0 0.0
2017-Oct-28 07:29N 46°59' E 031°60'0 0.0
2017-Oct-28 06:59N 46°59' E 031°60'  
2017-Oct-21 16:41N 46°59' E 031°60'0 0.1
2017-Oct-21 16:29N 46°59' E 031°60'0 0.0
2017-Oct-21 15:59N 46°59' E 031°60'2 2.9
2017-Oct-21 15:28N 46°59' E 031°57'1 2.7
2017-Oct-21 14:59N 46°58' E 031°56'0 0.5
2017-Oct-21 14:30N 46°58' E 031°55'1 1.4
2017-Oct-21 13:28N 46°59' E 031°57'0 0.5
2017-Oct-21 12:59N 46°59' E 031°58'1 1.4
2017-Oct-21 12:30N 46°59' E 031°58'1 1.9
2017-Oct-21 12:00N 46°59' E 031°60'0 0.0
2017-Oct-21 11:30N 46°59' E 031°60'1 2.6
2017-Oct-21 11:00N 46°59' E 031°58'1 1.6
2017-Oct-21 10:30N 46°59' E 031°59'  

Dump ship's entire track history